Time;durP1;ratioP1;P1;durP2;ratioP2;P2;SDS_P1;SDS_P2;PMS_P1;PMS_P2;Temp;Humidity;BMP_temperature;BMP_pressure;BME280_temperature;BME280_humidity;BME280_pressure;Samples;Min_cycle;Max_cycle;Signal;HPM_P1;HPM_P2
2023/06/01 00:00:44;;;;;;;13.43;9.20;;;12.50;99.90;;;;;;4981309;28;20559;-66
2023/06/01 00:03:12;;;;;;;12.10;8.03;;;12.50;99.90;;;;;;4991346;28;22183;-67
2023/06/01 00:05:40;;;;;;;14.17;8.13;;;12.50;99.90;;;;;;4989923;28;20998;-67
2023/06/01 00:08:10;;;;;;;16.30;8.37;;;12.40;99.90;;;;;;4994084;28;20559;-67
2023/06/01 00:10:38;;;;;;;11.73;8.83;;;12.40;99.90;;;;;;4992918;28;20476;-67
2023/06/01 00:13:07;;;;;;;9.20;8.10;;;12.30;99.90;;;;;;4991493;28;20512;-67
2023/06/01 00:15:49;;;;;;;9.80;8.07;;;12.40;99.90;;;;;;4988860;28;20476;-67
2023/06/01 00:18:17;;;;;;;13.37;8.00;;;12.40;99.90;;;;;;4988650;28;20468;-67
2023/06/01 00:20:45;;;;;;;10.07;8.57;;;12.40;99.90;;;;;;4995012;28;21585;-67
2023/06/01 00:23:16;;;;;;;8.73;7.83;;;12.30;99.90;;;;;;4991560;28;20587;-67
2023/06/01 00:25:44;;;;;;;10.50;7.97;;;12.30;99.90;;;;;;4993326;28;20855;-67
2023/06/01 00:28:12;;;;;;;10.73;8.77;;;12.30;99.90;;;;;;4985724;28;21072;-67
2023/06/01 00:30:40;;;;;;;9.20;8.40;;;12.30;99.90;;;;;;4987247;28;20558;-67
2023/06/01 00:33:08;;;;;;;10.70;8.60;;;12.20;99.90;;;;;;4988984;28;20591;-67
2023/06/01 00:35:36;;;;;;;11.90;8.57;;;12.30;99.90;;;;;;4991699;28;20492;-68
2023/06/01 00:38:06;;;;;;;12.33;8.63;;;12.30;99.90;;;;;;4993029;28;20867;-67
2023/06/01 00:40:36;;;;;;;12.30;9.00;;;12.30;99.90;;;;;;4995420;28;20511;-67
2023/06/01 00:43:04;;;;;;;16.67;10.37;;;12.30;99.90;;;;;;4991470;28;20991;-67
2023/06/01 00:45:32;;;;;;;12.87;9.83;;;12.30;99.90;;;;;;4989155;28;20999;-67
2023/06/01 00:48:00;;;;;;;9.93;9.03;;;12.30;99.90;;;;;;4992363;28;20548;-67
2023/06/01 00:50:29;;;;;;;12.83;11.00;;;12.40;99.90;;;;;;5010122;28;20496;-67
2023/06/01 00:52:58;;;;;;;12.97;11.67;;;12.30;99.90;;;;;;5017926;28;20513;-67
2023/06/01 00:55:28;;;;;;;16.30;11.97;;;12.20;99.90;;;;;;4991774;28;20473;-70
2023/06/01 00:57:58;;;;;;;13.03;11.50;;;12.20;99.90;;;;;;4986126;28;20944;-67
2023/06/01 01:00:28;;;;;;;13.63;12.23;;;12.20;99.90;;;;;;4986555;28;20468;-67
2023/06/01 01:02:56;;;;;;;13.90;12.23;;;12.20;99.90;;;;;;4991483;28;21006;-67
2023/06/01 01:05:26;;;;;;;12.13;11.00;;;12.20;99.90;;;;;;4990993;28;20480;-67
2023/06/01 01:07:59;;;;;;;14.50;11.07;;;12.20;99.90;;;;;;4996927;28;20519;-67
2023/06/01 01:10:33;;;;;;;13.60;10.20;;;12.10;99.90;;;;;;4997251;28;20475;-67
2023/06/01 01:13:10;;;;;;;13.00;9.80;;;12.10;99.90;;;;;;4997912;28;20597;-67
2023/06/01 01:15:45;;;;;;;12.77;10.03;;;12.10;99.90;;;;;;4993121;28;20476;-67
2023/06/01 01:18:19;;;;;;;9.37;7.80;;;12.10;99.90;;;;;;4989975;28;21956;-67
2023/06/01 01:20:53;;;;;;;10.97;8.00;;;12.10;99.90;;;;;;4991763;28;20510;-67
2023/06/01 01:23:45;;;;;;;7.53;6.80;;;12.20;99.90;;;;;;4997429;28;20527;-67
2023/06/01 01:26:37;;;;;;;9.33;7.73;;;12.10;99.90;;;;;;5000297;28;20919;-67
2023/06/01 01:29:10;;;;;;;9.63;7.20;;;12.20;99.90;;;;;;4996290;28;21084;-67
2023/06/01 01:31:40;;;;;;;11.10;7.77;;;12.10;99.90;;;;;;4986583;28;20542;-67
2023/06/01 01:34:10;;;;;;;9.07;6.87;;;12.10;99.90;;;;;;4993845;28;20494;-67
2023/06/01 01:36:38;;;;;;;9.03;6.60;;;12.10;99.90;;;;;;4997817;28;20478;-67
2023/06/01 01:39:06;;;;;;;8.53;7.33;;;12.10;99.90;;;;;;4996943;28;20574;-67
2023/06/01 01:41:34;;;;;;;10.23;7.03;;;12.10;99.90;;;;;;4995897;28;21279;-67
2023/06/01 01:44:03;;;;;;;12.40;7.63;;;12.10;99.90;;;;;;4999835;28;21033;-67
2023/06/01 01:46:39;;;;;;;10.70;7.20;;;12.10;99.90;;;;;;4997708;28;20504;-67
2023/06/01 01:49:12;;;;;;;13.93;7.90;;;12.10;99.90;;;;;;4996591;28;20501;-67
2023/06/01 01:51:50;;;;;;;12.93;8.17;;;12.20;99.90;;;;;;4991408;28;20860;-66
2023/06/01 01:54:19;;;;;;;8.37;7.50;;;12.10;99.90;;;;;;4997488;28;20648;-66
2023/06/01 01:56:47;;;;;;;11.83;9.33;;;12.10;99.90;;;;;;5008134;28;20568;-72
2023/06/01 01:59:17;;;;;;;11.13;9.20;;;12.10;99.90;;;;;;5013551;28;20479;-67
2023/06/01 02:01:47;;;;;;;13.13;9.60;;;12.10;99.90;;;;;;5007622;28;20500;-67
2023/06/01 02:04:17;;;;;;;16.27;9.90;;;12.10;99.90;;;;;;5009113;28;20502;-67
2023/06/01 02:06:46;;;;;;;16.10;8.83;;;12.10;99.90;;;;;;5014169;28;20494;-67
2023/06/01 02:09:14;;;;;;;15.57;9.93;;;12.10;99.90;;;;;;5009720;28;20472;-67
2023/06/01 02:11:43;;;;;;;13.37;9.37;;;12.00;99.90;;;;;;5003140;28;21070;-67
2023/06/01 02:14:12;;;;;;;14.80;10.80;;;11.90;99.90;;;;;;4998868;28;20961;-67
2023/06/01 02:16:40;;;;;;;11.93;10.20;;;11.90;99.90;;;;;;5003912;28;20484;-67
2023/06/01 02:19:10;;;;;;;12.60;9.87;;;11.90;99.90;;;;;;5003646;28;20574;-67
2023/06/01 02:21:38;;;;;;;11.73;10.07;;;11.90;99.90;;;;;;4999822;28;20495;-67
2023/06/01 02:24:08;;;;;;;11.93;8.43;;;11.90;99.90;;;;;;4994199;28;20494;-67
2023/06/01 02:26:36;;;;;;;12.00;8.17;;;12.00;99.90;;;;;;4993051;28;20515;-67
2023/06/01 02:29:05;;;;;;;9.10;7.80;;;11.90;99.90;;;;;;4990992;28;20474;-67
2023/06/01 02:31:33;;;;;;;11.00;8.30;;;11.90;99.90;;;;;;4987837;28;21058;-67
2023/06/01 02:34:02;;;;;;;9.30;7.50;;;11.90;99.90;;;;;;4992874;28;20500;-67
2023/06/01 02:36:31;;;;;;;9.80;7.10;;;11.80;99.90;;;;;;4989207;28;20525;-67
2023/06/01 02:39:00;;;;;;;12.30;7.80;;;11.80;99.90;;;;;;4990016;28;20479;-67
2023/06/01 02:41:28;;;;;;;11.20;7.53;;;11.80;99.90;;;;;;4990870;28;20481;-67
2023/06/01 02:43:56;;;;;;;13.50;7.83;;;11.80;99.90;;;;;;4983669;28;21193;-67
2023/06/01 02:46:24;;;;;;;10.87;7.60;;;11.80;99.90;;;;;;4988492;28;20851;-67
2023/06/01 02:48:52;;;;;;;11.00;7.23;;;11.90;99.90;;;;;;4991504;28;21060;-67
2023/06/01 02:51:20;;;;;;;11.30;7.90;;;11.80;99.90;;;;;;4993488;28;20514;-67
2023/06/01 02:53:50;;;;;;;11.47;8.27;;;11.80;99.90;;;;;;5018989;28;20489;-67
2023/06/01 02:56:18;;;;;;;12.40;7.70;;;11.80;99.90;;;;;;5010491;28;20476;-67
2023/06/01 02:58:46;;;;;;;13.20;9.23;;;11.80;99.90;;;;;;5001214;28;20559;-67
2023/06/01 03:01:14;;;;;;;12.13;8.83;;;11.90;99.90;;;;;;4990628;28;20575;-67
2023/06/01 03:03:44;;;;;;;12.97;9.33;;;11.80;99.90;;;;;;4983649;28;20472;-67
2023/06/01 03:06:17;;;;;;;11.03;9.00;;;11.90;99.90;;;;;;4992267;28;20472;-67
2023/06/01 03:08:45;;;;;;;11.23;9.80;;;11.90;99.90;;;;;;4983732;28;20534;-67
2023/06/01 03:11:14;;;;;;;13.00;9.30;;;11.80;99.90;;;;;;4987208;28;20515;-67
2023/06/01 03:13:42;;;;;;;12.90;9.40;;;11.80;99.90;;;;;;4988884;28;20542;-67
2023/06/01 03:16:10;;;;;;;12.10;9.27;;;11.70;99.90;;;;;;4988264;28;20570;-67
2023/06/01 03:18:38;;;;;;;12.30;8.50;;;11.80;99.90;;;;;;4983317;28;20487;-68
2023/06/01 03:21:06;;;;;;;10.17;7.50;;;11.80;99.90;;;;;;4982129;28;20602;-67
2023/06/01 03:23:35;;;;;;;12.53;8.27;;;11.80;99.90;;;;;;4982503;28;20574;-67
2023/06/01 03:26:04;;;;;;;8.27;7.03;;;11.80;99.90;;;;;;4981651;28;20963;-67
2023/06/01 03:28:33;;;;;;;9.53;6.37;;;11.80;99.90;;;;;;4984084;28;20555;-67
2023/06/01 03:31:01;;;;;;;7.87;6.00;;;11.70;99.90;;;;;;4981486;28;20866;-67
2023/06/01 03:33:30;;;;;;;12.10;6.20;;;11.70;99.90;;;;;;4985532;28;20843;-67
2023/06/01 03:35:58;;;;;;;7.93;5.07;;;11.80;99.90;;;;;;4987808;28;20510;-68
2023/06/01 03:38:26;;;;;;;10.50;5.20;;;11.90;99.90;;;;;;4990800;28;21020;-67
2023/06/01 03:40:54;;;;;;;7.60;5.23;;;11.90;99.90;;;;;;4994672;28;20903;-67
2023/06/01 03:43:22;;;;;;;10.27;6.50;;;11.80;99.90;;;;;;4998131;28;20648;-67
2023/06/01 03:45:52;;;;;;;9.97;7.30;;;11.80;99.90;;;;;;4995082;28;20771;-67
2023/06/01 03:48:20;;;;;;;12.20;8.00;;;11.80;99.90;;;;;;5000131;28;21222;-67
2023/06/01 03:50:48;;;;;;;10.17;8.23;;;11.80;99.90;;;;;;4995397;28;21156;-67
2023/06/01 03:53:16;;;;;;;13.17;8.57;;;11.80;99.90;;;;;;4996998;28;20488;-67
2023/06/01 03:55:44;;;;;;;12.77;8.57;;;11.80;99.90;;;;;;4997825;28;20586;-67
2023/06/01 03:58:12;;;;;;;10.50;9.20;;;11.80;99.90;;;;;;4998603;28;20472;-67
2023/06/01 04:00:41;;;;;;;12.40;8.40;;;11.90;99.90;;;;;;4995489;28;20555;-67
2023/06/01 04:03:11;;;;;;;11.33;8.47;;;11.90;99.90;;;;;;4997807;28;20555;-67
2023/06/01 04:05:39;;;;;;;13.67;9.07;;;11.90;99.90;;;;;;4998357;28;21706;-66
2023/06/01 04:08:08;;;;;;;10.23;8.27;;;11.90;99.90;;;;;;4994911;28;20499;-67
2023/06/01 04:10:36;;;;;;;12.53;8.50;;;11.90;99.90;;;;;;4994114;28;20542;-67
2023/06/01 04:13:05;;;;;;;8.43;6.80;;;11.90;99.90;;;;;;4988538;28;20560;-66
2023/06/01 04:15:33;;;;;;;9.40;6.20;;;11.80;99.90;;;;;;4990323;28;20582;-67
2023/06/01 04:18:01;;;;;;;10.67;7.23;;;11.80;99.90;;;;;;4985251;28;20555;-66
2023/06/01 04:20:31;;;;;;;12.00;6.73;;;11.90;99.90;;;;;;4990724;28;20551;-67
2023/06/01 04:22:59;;;;;;;8.70;6.60;;;11.90;99.90;;;;;;4996225;28;20481;-67
2023/06/01 04:25:28;;;;;;;7.97;5.93;;;11.90;99.90;;;;;;4998433;28;20961;-67
2023/06/01 04:27:56;;;;;;;7.13;5.67;;;11.90;99.90;;;;;;4990505;28;20473;-67
2023/06/01 04:30:24;;;;;;;8.30;5.20;;;11.90;99.90;;;;;;4987506;28;20491;-67
2023/06/01 04:32:53;;;;;;;7.27;5.13;;;12.00;99.90;;;;;;4982974;28;20528;-66
2023/06/01 04:35:21;;;;;;;10.60;5.27;;;12.00;99.90;;;;;;4992531;28;20992;-67
2023/06/01 04:37:51;;;;;;;8.70;4.80;;;12.00;99.90;;;;;;4987733;28;20494;-67
2023/06/01 04:40:19;;;;;;;10.10;6.10;;;12.00;99.90;;;;;;4993876;28;20513;-67
2023/06/01 04:42:48;;;;;;;9.53;5.27;;;12.00;99.90;;;;;;4986649;28;20595;-67
2023/06/01 04:45:18;;;;;;;8.27;5.07;;;12.00;99.90;;;;;;4989456;28;20571;-68
2023/06/01 04:47:47;;;;;;;8.70;5.03;;;12.10;99.90;;;;;;4995164;28;20510;-67
2023/06/01 04:50:16;;;;;;;12.87;5.83;;;12.00;99.90;;;;;;4998945;28;20548;-67
2023/06/01 04:52:45;;;;;;;7.07;5.00;;;12.00;99.90;;;;;;4988635;28;20493;-67
2023/06/01 04:55:15;;;;;;;9.20;5.00;;;12.00;99.90;;;;;;4997626;28;21119;-66
2023/06/01 04:57:46;;;;;;;8.30;4.80;;;12.00;99.90;;;;;;5011034;28;20532;-67
2023/06/01 05:00:17;;;;;;;8.70;5.00;;;12.10;99.90;;;;;;4987734;28;20483;-67
2023/06/01 05:02:47;;;;;;;8.20;4.97;;;12.00;99.90;;;;;;4988817;28;20496;-67
2023/06/01 05:05:16;;;;;;;7.53;4.73;;;12.00;99.90;;;;;;4991516;28;21267;-66
2023/06/01 05:07:45;;;;;;;7.63;4.87;;;12.00;99.90;;;;;;4986399;28;20477;-67
2023/06/01 05:10:17;;;;;;;10.40;5.13;;;12.00;99.90;;;;;;4986694;28;20776;-66
2023/06/01 05:12:45;;;;;;;8.47;4.67;;;12.10;99.90;;;;;;4982974;28;20496;-66
2023/06/01 05:15:13;;;;;;;9.00;4.93;;;12.10;99.90;;;;;;4975277;28;20524;-67
2023/06/01 05:17:42;;;;;;;7.50;4.17;;;12.10;99.90;;;;;;4972518;28;20485;-67
2023/06/01 05:20:11;;;;;;;7.30;5.23;;;12.10;99.90;;;;;;4977821;28;20496;-66
2023/06/01 05:22:39;;;;;;;8.87;4.70;;;12.00;99.90;;;;;;4984535;28;22423;-66
2023/06/01 05:25:08;;;;;;;10.73;4.90;;;12.00;99.90;;;;;;4989317;28;20903;-66
2023/06/01 05:27:38;;;;;;;9.13;4.83;;;12.00;99.90;;;;;;4989651;28;22364;-67
2023/06/01 05:30:07;;;;;;;7.97;4.93;;;12.10;99.90;;;;;;4992481;28;20476;-66
2023/06/01 05:32:36;;;;;;;9.60;5.00;;;12.10;99.90;;;;;;4991420;28;21060;-67
2023/06/01 05:35:05;;;;;;;8.30;5.30;;;12.10;99.90;;;;;;4995054;28;20499;-66
2023/06/01 05:37:34;;;;;;;7.50;4.60;;;12.20;99.90;;;;;;4991629;28;20562;-67
2023/06/01 05:40:03;;;;;;;7.73;4.73;;;12.20;99.90;;;;;;4988999;28;20477;-66
2023/06/01 05:42:31;;;;;;;6.53;4.30;;;12.30;99.90;;;;;;4991172;28;20500;-67
2023/06/01 05:45:00;;;;;;;6.97;4.47;;;12.30;99.90;;;;;;4983407;28;20473;-67
2023/06/01 05:47:28;;;;;;;7.07;4.53;;;12.20;99.90;;;;;;4984137;28;20748;-67
2023/06/01 05:49:56;;;;;;;8.20;5.17;;;12.20;99.90;;;;;;4988877;28;20477;-66
2023/06/01 05:52:24;;;;;;;12.17;4.63;;;12.30;99.90;;;;;;4982554;28;23149;-66
2023/06/01 05:54:53;;;;;;;8.00;4.37;;;12.30;99.90;;;;;;4982988;28;20817;-67
2023/06/01 05:57:21;;;;;;;8.33;5.30;;;12.30;99.90;;;;;;4987793;28;20515;-67
2023/06/01 05:59:49;;;;;;;8.80;4.60;;;12.30;99.90;;;;;;4988836;28;20545;-67
2023/06/01 06:02:19;;;;;;;8.33;4.07;;;12.30;99.90;;;;;;4972545;28;20580;-67
2023/06/01 06:04:47;;;;;;;7.47;4.60;;;12.30;99.90;;;;;;4987428;28;20469;-67
2023/06/01 06:07:15;;;;;;;6.97;3.97;;;12.30;99.90;;;;;;4995835;28;20475;-67
2023/06/01 06:09:43;;;;;;;7.73;3.80;;;12.30;99.90;;;;;;4986979;28;20566;-67
2023/06/01 06:12:11;;;;;;;8.40;3.60;;;12.30;99.90;;;;;;4982712;28;20657;-67
2023/06/01 06:14:39;;;;;;;5.97;3.70;;;12.30;99.90;;;;;;4985635;28;20580;-67
2023/06/01 06:17:09;;;;;;;10.20;4.63;;;12.30;99.90;;;;;;4983610;28;20510;-66
2023/06/01 06:19:39;;;;;;;8.03;3.70;;;12.20;99.90;;;;;;4984053;28;20487;-66
2023/06/01 06:22:07;;;;;;;9.30;3.70;;;12.20;99.90;;;;;;4986973;28;20639;-66
2023/06/01 06:24:35;;;;;;;8.27;4.40;;;12.20;99.90;;;;;;4985338;28;20499;-66
2023/06/01 06:27:03;;;;;;;8.63;4.57;;;12.30;99.90;;;;;;4987360;28;20615;-66
2023/06/01 06:29:31;;;;;;;5.93;3.83;;;12.30;99.90;;;;;;4984863;28;20606;-66
2023/06/01 06:31:59;;;;;;;8.17;4.00;;;12.40;99.90;;;;;;4986035;28;20500;-66
2023/06/01 06:34:33;;;;;;;7.97;3.80;;;12.40;99.90;;;;;;4994556;28;20477;-67
2023/06/01 06:37:03;;;;;;;6.93;4.10;;;12.40;99.90;;;;;;4989890;28;20495;-66
2023/06/01 06:39:31;;;;;;;7.73;4.70;;;12.50;99.90;;;;;;4991832;28;20560;-66
2023/06/01 06:42:00;;;;;;;11.17;4.70;;;12.50;99.90;;;;;;4986133;28;20500;-66
2023/06/01 06:44:29;;;;;;;10.43;4.00;;;12.40;99.90;;;;;;4988651;28;23701;-68
2023/06/01 06:46:59;;;;;;;11.07;4.70;;;12.50;99.90;;;;;;4991016;28;20477;-66
2023/06/01 06:49:30;;;;;;;8.27;4.20;;;12.50;99.90;;;;;;4992514;28;20476;-66
2023/06/01 06:51:58;;;;;;;6.03;3.70;;;12.60;99.90;;;;;;4992262;28;20503;-66
2023/06/01 06:54:27;;;;;;;7.97;3.70;;;12.70;99.90;;;;;;4990039;28;20473;-66
2023/06/01 06:56:55;;;;;;;8.60;3.63;;;12.70;99.90;;;;;;4990589;28;20500;-67
2023/06/01 06:59:23;;;;;;;9.23;5.40;;;12.70;99.90;;;;;;5010176;28;20512;-66
2023/06/01 07:01:51;;;;;;;5.97;3.37;;;12.80;99.90;;;;;;4986811;28;20496;-66
2023/06/01 07:04:20;;;;;;;7.00;3.87;;;12.80;99.90;;;;;;4985709;28;20574;-66
2023/06/01 07:06:48;;;;;;;5.50;3.53;;;12.80;99.90;;;;;;4983529;28;20915;-66
2023/06/01 07:09:16;;;;;;;8.60;3.73;;;12.80;99.90;;;;;;4991796;28;20894;-66
2023/06/01 07:11:47;;;;;;;6.80;3.33;;;12.80;99.90;;;;;;4986058;28;20663;-66
2023/06/01 07:14:15;;;;;;;10.53;3.23;;;12.80;99.90;;;;;;4984559;28;21004;-67
2023/06/01 07:16:43;;;;;;;4.40;3.10;;;12.80;99.90;;;;;;4986017;28;20616;-66
2023/06/01 07:19:13;;;;;;;7.13;3.10;;;12.80;99.90;;;;;;4989855;28;20971;-66
2023/06/01 07:21:41;;;;;;;6.20;2.93;;;12.90;99.90;;;;;;4989028;28;20688;-66
2023/06/01 07:24:10;;;;;;;5.77;2.93;;;13.00;99.90;;;;;;5001567;28;20469;-66
2023/06/01 07:26:38;;;;;;;5.97;2.90;;;13.10;99.90;;;;;;4993715;28;20481;-67
2023/06/01 07:29:07;;;;;;;5.87;3.00;;;13.10;99.90;;;;;;4999056;28;20539;-66
2023/06/01 07:31:36;;;;;;;5.80;2.93;;;13.10;99.90;;;;;;4992705;28;20578;-66
2023/06/01 07:34:04;;;;;;;7.70;3.53;;;13.00;99.90;;;;;;4993782;28;20484;-66
2023/06/01 07:36:36;;;;;;;4.90;3.27;;;13.00;99.90;;;;;;4996962;28;20496;-66
2023/06/01 07:39:08;;;;;;;8.57;3.80;;;13.10;99.90;;;;;;4997178;28;20480;-66
2023/06/01 07:41:36;;;;;;;4.87;3.70;;;13.00;99.90;;;;;;4997216;28;20500;-66
2023/06/01 07:44:05;;;;;;;4.97;3.53;;;13.00;99.90;;;;;;4996592;28;20477;-66
2023/06/01 07:46:34;;;;;;;5.27;3.30;;;13.00;99.90;;;;;;4994648;28;20475;-66
2023/06/01 07:49:03;;;;;;;7.13;3.70;;;13.10;99.90;;;;;;4997521;28;20479;-67
2023/06/01 07:51:31;;;;;;;4.93;3.40;;;13.10;99.90;;;;;;5007547;28;20499;-67
2023/06/01 07:54:01;;;;;;;5.27;3.70;;;13.10;99.90;;;;;;5004150;28;20563;-66
2023/06/01 07:56:29;;;;;;;6.00;3.63;;;13.10;99.90;;;;;;5001470;28;20563;-67
2023/06/01 07:58:57;;;;;;;8.60;3.97;;;13.10;99.90;;;;;;4999727;28;20496;-67
2023/06/01 08:01:25;;;;;;;7.37;3.90;;;13.20;99.90;;;;;;4984513;28;20492;-67
2023/06/01 08:03:55;;;;;;;8.53;4.53;;;13.30;99.90;;;;;;4990547;28;20506;-67
2023/06/01 08:06:24;;;;;;;5.40;3.50;;;13.30;99.90;;;;;;4989533;28;20574;-67
2023/06/01 08:08:53;;;;;;;4.93;3.50;;;13.30;99.90;;;;;;4999158;28;20552;-67
2023/06/01 08:11:23;;;;;;;7.83;3.57;;;13.30;99.90;;;;;;4989973;28;20503;-67
2023/06/01 08:13:51;;;;;;;7.87;4.37;;;13.40;99.90;;;;;;4994674;28;20565;-67
2023/06/01 08:16:19;;;;;;;6.03;5.30;;;13.40;99.90;;;;;;4995444;28;20928;-67
2023/06/01 08:18:47;;;;;;;9.43;5.10;;;13.40;99.90;;;;;;4996678;28;20965;-67
2023/06/01 08:21:17;;;;;;;7.13;4.50;;;13.50;99.90;;;;;;4994867;28;21013;-67
2023/06/01 08:23:47;;;;;;;6.67;4.33;;;13.60;99.90;;;;;;4988458;28;20571;-66
2023/06/01 08:26:15;;;;;;;8.30;4.70;;;13.70;99.90;;;;;;4991693;28;20470;-67
2023/06/01 08:28:47;;;;;;;7.27;4.50;;;13.70;99.90;;;;;;4984477;28;20496;-67
2023/06/01 08:31:16;;;;;;;9.37;4.80;;;13.80;99.90;;;;;;4982012;28;20487;-67
2023/06/01 08:33:44;;;;;;;6.33;4.60;;;13.80;99.90;;;;;;4985485;28;20475;-67
2023/06/01 08:36:12;;;;;;;6.50;4.83;;;13.70;99.90;;;;;;4993726;28;20575;-67
2023/06/01 08:38:44;;;;;;;9.50;4.87;;;13.70;99.90;;;;;;4992808;28;21077;-67
2023/06/01 08:41:22;;;;;;;6.17;4.43;;;13.70;99.90;;;;;;4986147;28;20491;-67
2023/06/01 08:43:55;;;;;;;8.40;4.70;;;13.70;99.90;;;;;;4989116;28;20473;-67
2023/06/01 08:46:25;;;;;;;7.13;4.13;;;13.70;99.90;;;;;;4989788;28;20611;-67
2023/06/01 08:48:55;;;;;;;9.30;4.67;;;13.80;99.90;;;;;;4983683;28;20480;-67
2023/06/01 08:51:24;;;;;;;7.30;4.43;;;13.70;99.90;;;;;;4989541;28;20564;-66
2023/06/01 08:53:57;;;;;;;6.43;3.87;;;13.70;99.90;;;;;;4990984;28;20504;-67
2023/06/01 08:56:28;;;;;;;6.90;4.53;;;13.80;99.90;;;;;;4986992;28;20587;-67
2023/06/01 08:58:57;;;;;;;7.10;4.57;;;13.90;99.90;;;;;;4991961;28;20464;-67
2023/06/01 09:01:26;;;;;;;6.00;4.50;;;14.00;99.90;;;;;;5007459;28;20481;-67
2023/06/01 09:03:54;;;;;;;5.20;4.00;;;13.90;99.90;;;;;;4996599;28;20484;-67
2023/06/01 09:06:22;;;;;;;12.30;4.40;;;13.90;99.90;;;;;;4989395;28;20480;-66
2023/06/01 09:08:50;;;;;;;6.47;4.50;;;13.90;99.90;;;;;;4985891;28;20504;-68
2023/06/01 09:11:20;;;;;;;8.60;4.97;;;13.90;99.90;;;;;;4991224;28;20507;-66
2023/06/01 09:13:49;;;;;;;6.93;4.90;;;13.90;99.90;;;;;;4988137;28;20564;-67
2023/06/01 09:16:17;;;;;;;9.23;5.10;;;13.90;99.90;;;;;;4997602;28;20604;-67
2023/06/01 09:18:55;;;;;;;7.33;4.67;;;13.90;99.90;;;;;;4983605;28;22459;-67
2023/06/01 09:21:23;;;;;;;10.20;4.47;;;14.00;99.90;;;;;;4980616;28;20493;-67
2023/06/01 09:23:51;;;;;;;7.03;4.73;;;14.00;99.90;;;;;;4990412;28;20504;-68
2023/06/01 09:26:27;;;;;;;8.57;5.13;;;14.00;99.90;;;;;;4996601;28;20476;-67
2023/06/01 09:28:57;;;;;;;7.47;4.17;;;13.90;99.90;;;;;;4994155;28;20587;-67
2023/06/01 09:31:42;;;;;;;7.73;4.57;;;13.90;99.90;;;;;;4995531;28;20547;-67
2023/06/01 09:34:12;;;;;;;10.83;4.63;;;14.00;99.90;;;;;;4994009;28;20477;-67
2023/06/01 09:36:42;;;;;;;9.97;4.70;;;14.10;99.90;;;;;;5000045;28;20575;-67
2023/06/01 09:39:13;;;;;;;6.60;4.03;;;14.10;99.90;;;;;;4999137;28;20503;-67
2023/06/01 09:41:53;;;;;;;6.47;4.63;;;14.20;99.90;;;;;;4997560;28;20910;-67
2023/06/01 09:44:26;;;;;;;17.50;5.93;;;14.30;99.90;;;;;;4996833;28;20548;-67
2023/06/01 09:46:56;;;;;;;9.53;5.00;;;14.40;99.90;;;;;;4998199;28;20468;-67
2023/06/01 09:49:28;;;;;;;6.37;4.27;;;14.50;99.90;;;;;;4989795;28;20493;-66
2023/06/01 09:52:14;;;;;;;6.67;4.40;;;14.50;99.90;;;;;;4985277;28;21221;-66
2023/06/01 09:54:44;;;;;;;6.77;4.10;;;14.50;99.90;;;;;;4988808;28;20496;-66
2023/06/01 09:57:20;;;;;;;5.13;3.90;;;14.60;99.90;;;;;;4985919;28;21028;-66
2023/06/01 09:59:48;;;;;;;8.67;4.33;;;14.60;99.90;;;;;;4988205;28;20586;-66
2023/06/01 10:02:18;;;;;;;5.37;4.10;;;14.60;99.90;;;;;;4987936;28;20569;-66
2023/06/01 10:04:49;;;;;;;9.00;4.67;;;14.60;99.90;;;;;;4996730;28;20488;-67
2023/06/01 10:07:18;;;;;;;10.17;4.00;;;14.60;99.90;;;;;;4988278;28;20492;-67
2023/06/01 10:09:50;;;;;;;8.03;3.93;;;14.70;99.90;;;;;;4986245;28;20558;-66
2023/06/01 10:12:20;;;;;;;7.87;4.33;;;14.80;99.90;;;;;;4988990;28;20554;-66
2023/06/01 10:14:50;;;;;;;5.87;4.37;;;14.90;99.90;;;;;;4985959;28;20551;-66
2023/06/01 10:17:19;;;;;;;7.10;5.10;;;14.90;99.90;;;;;;4989825;28;20524;-67
2023/06/01 10:19:47;;;;;;;9.40;5.00;;;15.00;99.90;;;;;;4999990;28;20472;-66
2023/06/01 10:22:15;;;;;;;6.20;4.10;;;15.00;99.90;;;;;;4994102;28;20507;-66
2023/06/01 10:24:44;;;;;;;7.47;4.30;;;15.00;99.90;;;;;;4986483;28;20604;-66
2023/06/01 10:27:20;;;;;;;5.80;4.20;;;15.10;99.90;;;;;;4987474;28;20503;-66
2023/06/01 10:29:52;;;;;;;9.33;4.43;;;15.20;99.90;;;;;;4985700;28;20475;-66
2023/06/01 10:32:43;;;;;;;8.30;4.57;;;15.10;99.90;;;;;;4986995;28;21420;-66
2023/06/01 10:35:49;;;;;;;5.80;3.60;;;15.20;99.90;;;;;;4989133;28;20472;-66
2023/06/01 10:38:26;;;;;;;7.40;4.13;;;15.20;99.90;;;;;;4991307;28;20484;-66
2023/06/01 10:41:14;;;;;;;7.17;3.80;;;15.20;99.90;;;;;;4992138;28;20994;-66
2023/06/01 10:43:42;;;;;;;7.87;4.37;;;15.30;99.90;;;;;;4984763;28;23423;-66
2023/06/01 10:46:43;;;;;;;5.47;3.87;;;15.30;99.90;;;;;;4988454;28;20496;-66
2023/06/01 10:49:13;;;;;;;6.47;4.60;;;15.40;99.90;;;;;;4994207;28;20471;-66
2023/06/01 10:51:41;;;;;;;7.63;4.37;;;15.50;99.90;;;;;;4992987;28;20494;-66
2023/06/01 10:54:40;;;;;;;4.47;3.73;;;15.50;99.90;;;;;;4992795;28;20472;-66
2023/06/01 10:57:24;;;;;;;8.00;4.30;;;15.30;99.90;;;;;;4989472;28;21009;-66
2023/06/01 11:00:16;;;;;;;7.40;4.00;;;15.30;99.90;;;;;;4992176;28;20531;-66
2023/06/01 11:02:52;;;;;;;7.10;3.67;;;15.40;99.90;;;;;;5008756;28;20475;-66
2023/06/01 11:05:50;;;;;;;6.87;3.77;;;15.40;99.90;;;;;;5012799;28;20539;-67
2023/06/01 11:08:52;;;;;;;6.27;3.40;;;15.30;99.90;;;;;;5005529;28;20855;-69
2023/06/01 11:11:24;;;;;;;8.90;4.30;;;15.30;99.90;;;;;;4992911;28;20539;-66
2023/06/01 11:14:12;;;;;;;5.60;3.33;;;15.30;99.90;;;;;;4995766;28;20463;-66
2023/06/01 11:16:40;;;;;;;7.80;4.27;;;15.30;99.90;;;;;;4997712;28;20472;-66
2023/06/01 11:19:10;;;;;;;5.97;3.90;;;15.20;99.90;;;;;;4991744;28;20503;-66
2023/06/01 11:21:42;;;;;;;6.43;3.90;;;15.20;99.90;;;;;;4998623;28;20498;-66
2023/06/01 11:24:13;;;;;;;8.30;4.33;;;15.00;99.90;;;;;;4997230;28;20851;-66
2023/06/01 11:26:42;;;;;;;9.27;4.57;;;15.00;99.90;;;;;;4997992;28;20522;-67
2023/06/01 11:29:16;;;;;;;5.23;4.13;;;15.00;99.90;;;;;;4997356;28;20468;-66
2023/06/01 11:31:46;;;;;;;5.63;4.50;;;15.10;99.90;;;;;;5000752;28;20500;-66
2023/06/01 11:34:18;;;;;;;10.07;4.23;;;15.20;99.90;;;;;;5000153;28;20464;-66
2023/06/01 11:36:48;;;;;;;10.10;5.10;;;15.20;99.90;;;;;;4996794;28;20562;-66
2023/06/01 11:39:24;;;;;;;6.30;3.93;;;15.30;99.90;;;;;;5001366;28;20494;-66
2023/06/01 11:42:05;;;;;;;6.67;3.70;;;15.40;99.90;;;;;;4998892;28;20502;-67
2023/06/01 11:44:33;;;;;;;5.60;3.20;;;15.40;99.90;;;;;;5001591;28;20467;-66
2023/06/01 11:47:02;;;;;;;6.40;3.47;;;15.50;99.90;;;;;;5000895;28;20476;-66
2023/06/01 11:49:31;;;;;;;5.40;3.77;;;15.60;99.90;;;;;;5002567;28;20475;-66
2023/06/01 11:51:59;;;;;;;8.37;3.60;;;15.60;99.90;;;;;;4992852;28;21056;-66
2023/06/01 11:54:29;;;;;;;6.77;3.40;;;15.60;99.90;;;;;;4991879;28;20561;-66
2023/06/01 11:56:57;;;;;;;7.23;3.27;;;15.60;99.90;;;;;;4987294;28;20506;-67
2023/06/01 11:59:28;;;;;;;4.80;3.60;;;15.40;99.90;;;;;;4994219;28;20523;-66
2023/06/01 12:01:56;;;;;;;8.47;3.00;;;15.40;99.90;;;;;;4988801;28;21605;-66
2023/06/01 12:04:26;;;;;;;5.50;3.60;;;15.40;99.90;;;;;;4988167;28;20567;-66
2023/06/01 12:07:06;;;;;;;5.33;3.63;;;15.30;99.90;;;;;;4989667;28;20477;-67
2023/06/01 12:09:36;;;;;;;4.53;2.83;;;15.30;99.90;;;;;;4986991;28;20688;-67
2023/06/01 12:12:08;;;;;;;4.47;2.70;;;15.40;99.90;;;;;;4988603;28;20502;-67
2023/06/01 12:14:36;;;;;;;3.30;2.43;;;15.60;99.90;;;;;;4995174;28;20550;-67
2023/06/01 12:17:05;;;;;;;8.07;2.90;;;15.70;99.90;;;;;;4993580;28;21074;-67
2023/06/01 12:19:34;;;;;;;5.80;2.50;;;15.80;99.90;;;;;;4991092;28;20504;-67
2023/06/01 12:22:03;;;;;;;3.53;2.27;;;15.80;99.90;;;;;;4991072;28;20523;-67
2023/06/01 12:24:34;;;;;;;7.80;2.77;;;15.90;99.90;;;;;;4997400;28;20558;-67
2023/06/01 12:27:03;;;;;;;7.77;2.97;;;15.90;99.90;;;;;;4997339;28;20508;-66
2023/06/01 12:29:38;;;;;;;6.70;2.60;;;15.80;99.90;;;;;;4998504;28;20495;-67
2023/06/01 12:32:08;;;;;;;7.13;2.73;;;16.00;99.90;;;;;;4997709;28;20601;-67
2023/06/01 12:34:37;;;;;;;5.70;2.53;;;16.10;99.90;;;;;;5002985;28;20501;-67
2023/06/01 12:37:15;;;;;;;4.80;2.30;;;16.30;99.90;;;;;;5000836;28;20480;-67
2023/06/01 12:39:52;;;;;;;8.30;2.70;;;16.40;99.90;;;;;;5001609;28;20493;-67
2023/06/01 12:42:20;;;;;;;5.10;2.90;;;16.60;99.90;;;;;;4996922;28;20487;-67
2023/06/01 12:44:54;;;;;;;8.80;2.90;;;16.70;99.90;;;;;;5000628;28;20890;-66
2023/06/01 12:47:22;;;;;;;4.47;2.73;;;16.40;99.90;;;;;;4996917;28;20484;-66
2023/06/01 12:50:04;;;;;;;4.17;2.83;;;16.50;99.90;;;;;;5001938;28;20833;-67
2023/06/01 12:52:33;;;;;;;6.70;3.10;;;16.70;99.90;;;;;;5000764;28;20857;-67
2023/06/01 12:55:03;;;;;;;4.63;2.60;;;16.90;99.90;;;;;;4999459;28;20499;-66
2023/06/01 12:57:31;;;;;;;6.23;2.20;;;17.00;99.90;;;;;;4997053;28;20565;-66
2023/06/01 13:00:00;;;;;;;5.63;2.10;;;17.10;99.90;;;;;;4997430;28;20571;-67